createdAt,value
2022-12-13T00:01:47.618Z,13.73
2022-12-13T00:04:15.507Z,13.30
2022-12-13T00:06:43.941Z,16.73
2022-12-13T00:09:14.760Z,13.80
2022-12-13T00:11:43.298Z,11.67
2022-12-13T00:14:11.810Z,11.83
2022-12-13T00:16:40.108Z,12.10
2022-12-13T00:19:07.671Z,11.73
2022-12-13T00:21:35.598Z,12.23
2022-12-13T00:24:06.020Z,10.10
2022-12-13T00:26:34.570Z,11.47
2022-12-13T00:29:04.617Z,12.30
2022-12-13T00:34:20.802Z,16.47
2022-12-13T00:36:49.126Z,13.40
2022-12-13T00:39:17.527Z,12.43
2022-12-13T00:41:46.178Z,13.27
2022-12-13T00:44:14.850Z,12.23
2022-12-13T00:46:43.059Z,11.17
2022-12-13T00:49:12.076Z,12.23
2022-12-13T00:51:41.180Z,14.00
2022-12-13T00:54:10.345Z,12.93
2022-12-13T00:56:38.895Z,13.83
2022-12-13T00:59:06.690Z,12.57
2022-12-13T01:01:36.852Z,11.20
2022-12-13T01:04:05.942Z,13.50
2022-12-13T01:06:36.323Z,13.47
2022-12-13T01:09:06.712Z,12.23
2022-12-13T01:11:34.605Z,11.63
2022-12-13T01:14:03.425Z,12.13
2022-12-13T01:16:31.624Z,11.60
2022-12-13T01:18:59.367Z,11.47
2022-12-13T01:21:27.210Z,12.70
2022-12-13T01:24:05.945Z,11.47
2022-12-13T01:26:34.241Z,14.90
2022-12-13T01:29:02.198Z,18.80
2022-12-13T01:31:29.919Z,15.73
2022-12-13T01:33:58.250Z,11.13
2022-12-13T01:36:27.352Z,12.63
2022-12-13T01:38:58.681Z,12.37
2022-12-13T01:41:28.994Z,9.57
2022-12-13T01:44:03.688Z,9.60
2022-12-13T01:46:34.254Z,9.97
2022-12-13T01:49:20.185Z,10.37
2022-12-13T01:51:56.600Z,12.63
2022-12-13T01:54:33.465Z,12.43
2022-12-13T01:57:06.710Z,12.93
2022-12-13T01:59:36.657Z,10.97
2022-12-13T02:02:06.215Z,13.20
2022-12-13T02:05:01.310Z,15.27
2022-12-13T02:07:32.141Z,12.70
2022-12-13T02:10:01.975Z,14.60
2022-12-13T02:12:33.764Z,10.83
2022-12-13T02:15:08.968Z,10.27
2022-12-13T02:17:53.041Z,9.83
2022-12-13T02:20:38.772Z,10.97
2022-12-13T02:23:30.808Z,9.30
2022-12-13T02:26:16.007Z,9.50
2022-12-13T02:29:09.506Z,8.70
2022-12-13T02:32:06.307Z,8.43
2022-12-13T02:34:55.889Z,7.83
2022-12-13T02:37:25.415Z,9.33
2022-12-13T02:40:11.290Z,9.70
2022-12-13T02:42:45.526Z,8.93
2022-12-13T02:45:21.246Z,8.70
2022-12-13T02:47:52.678Z,8.47
2022-12-13T02:50:22.153Z,9.10
2022-12-13T02:52:51.724Z,8.73
2022-12-13T02:55:21.121Z,8.60
2022-12-13T02:57:50.273Z,7.93
2022-12-13T03:00:27.411Z,9.63
2022-12-13T03:03:15.251Z,9.80
2022-12-13T03:06:33.998Z,9.33
2022-12-13T03:09:11.143Z,9.13
2022-12-13T03:12:12.829Z,10.20
2022-12-13T03:14:55.686Z,11.67
2022-12-13T03:17:26.532Z,12.10
2022-12-13T03:19:54.782Z,13.90
2022-12-13T03:22:24.006Z,14.27
2022-12-13T03:24:53.133Z,14.83
2022-12-13T03:27:20.944Z,14.70
2022-12-13T03:29:48.350Z,16.13
2022-12-13T03:32:16.166Z,14.67
2022-12-13T03:34:45.556Z,13.40
2022-12-13T03:37:15.662Z,13.63
2022-12-13T03:39:43.144Z,13.17
2022-12-13T03:42:10.771Z,12.30
2022-12-13T03:44:38.195Z,13.50
2022-12-13T03:47:05.856Z,13.93
2022-12-13T03:49:35.507Z,14.30
2022-12-13T03:52:03.554Z,13.60
2022-12-13T03:54:30.976Z,12.90
2022-12-13T03:56:58.603Z,13.23
2022-12-13T03:59:27.985Z,12.27
2022-12-13T04:01:55.642Z,13.07
2022-12-13T04:04:23.149Z,13.30
2022-12-13T04:06:50.749Z,14.97
2022-12-13T04:09:17.991Z,15.07
2022-12-13T04:12:05.014Z,13.40
2022-12-13T04:14:32.315Z,13.23
2022-12-13T04:17:00.087Z,13.40
2022-12-13T04:19:27.465Z,13.70
2022-12-13T04:21:55.586Z,13.20
2022-12-13T04:24:31.610Z,14.73
2022-12-13T04:27:01.657Z,12.73
2022-12-13T04:29:33.803Z,14.23
2022-12-13T04:32:04.258Z,13.77
2022-12-13T04:34:37.290Z,12.27
2022-12-13T04:37:06.468Z,12.63
2022-12-13T04:39:34.686Z,13.23
2022-12-13T04:42:03.021Z,12.93
2022-12-13T04:44:36.559Z,12.90
2022-12-13T04:47:05.492Z,12.53
2022-12-13T04:49:33.607Z,13.07
2022-12-13T04:52:02.593Z,12.53
2022-12-13T04:54:36.021Z,12.70
2022-12-13T04:57:10.913Z,12.37
2022-12-13T04:59:38.607Z,12.27
2022-12-13T05:02:08.635Z,12.10
2022-12-13T05:04:36.679Z,11.43
2022-12-13T05:07:04.753Z,12.17
2022-12-13T05:09:32.414Z,11.83
2022-12-13T05:12:01.583Z,11.73
2022-12-13T05:14:32.973Z,12.50
2022-12-13T05:17:02.052Z,11.70
2022-12-13T05:19:31.195Z,11.90
2022-12-13T05:22:01.227Z,13.67
2022-12-13T05:24:31.975Z,11.70
2022-12-13T05:27:00.365Z,10.87
2022-12-13T05:29:28.211Z,11.13
2022-12-13T05:31:56.035Z,11.97
2022-12-13T05:34:23.586Z,14.57
2022-12-13T05:36:51.316Z,12.83
2022-12-13T05:39:28.034Z,13.87
2022-12-13T05:42:01.492Z,11.83
2022-12-13T05:44:32.733Z,11.37
2022-12-13T05:47:02.542Z,12.37
2022-12-13T05:49:31.590Z,10.93
2022-12-13T05:51:59.313Z,12.40
2022-12-13T05:54:26.843Z,12.33
2022-12-13T05:56:54.562Z,12.40
2022-12-13T05:59:22.473Z,12.07
2022-12-13T06:01:50.181Z,14.00
2022-12-13T06:04:22.082Z,15.33
2022-12-13T06:06:52.844Z,15.80
2022-12-13T06:09:21.148Z,12.47
2022-12-13T06:11:49.296Z,13.87
2022-12-13T06:14:22.637Z,12.17
2022-12-13T06:16:52.823Z,13.13
2022-12-13T06:19:24.509Z,12.90
2022-12-13T06:21:54.821Z,13.03
2022-12-13T06:24:23.608Z,12.40
2022-12-13T06:26:52.009Z,13.47
2022-12-13T06:29:23.053Z,12.43
2022-12-13T06:32:03.788Z,12.80
2022-12-13T06:34:35.853Z,13.00
2022-12-13T06:37:07.191Z,13.40
2022-12-13T06:39:35.548Z,13.73
2022-12-13T06:42:08.726Z,14.03
2022-12-13T06:44:36.342Z,14.17
2022-12-13T06:47:11.791Z,14.40
2022-12-13T06:49:43.610Z,14.63
2022-12-13T06:52:14.395Z,13.43
2022-12-13T06:54:43.340Z,14.10
2022-12-13T06:57:12.611Z,14.27
2022-12-13T06:59:40.543Z,17.40
2022-12-13T07:02:15.488Z,17.87
2022-12-13T07:04:53.156Z,17.17
2022-12-13T07:07:20.638Z,15.57
2022-12-13T07:09:47.849Z,14.10
2022-12-13T07:12:15.374Z,15.37
2022-12-13T07:14:42.867Z,14.30
2022-12-13T07:17:11.006Z,13.77
2022-12-13T07:19:38.388Z,13.93
2022-12-13T07:22:06.232Z,15.13
2022-12-13T07:24:35.295Z,14.97
2022-12-13T07:27:03.959Z,15.97
2022-12-13T07:29:31.322Z,15.00
2022-12-13T07:32:01.479Z,16.20
2022-12-13T07:34:30.428Z,17.10
2022-12-13T07:36:58.360Z,17.77
2022-12-13T07:39:28.793Z,20.13
2022-12-13T07:41:56.727Z,19.73
2022-12-13T07:44:25.009Z,15.80
2022-12-13T07:46:53.012Z,15.63
2022-12-13T07:49:20.440Z,16.87
2022-12-13T07:51:49.214Z,15.57
2022-12-13T07:54:16.564Z,16.47
2022-12-13T07:56:44.525Z,16.67
2022-12-13T07:59:13.869Z,16.17
2022-12-13T08:01:41.661Z,16.43
2022-12-13T08:04:10.211Z,14.60
2022-12-13T08:06:39.013Z,18.93
2022-12-13T08:09:06.977Z,18.97
2022-12-13T08:11:34.741Z,14.90
2022-12-13T08:14:02.037Z,16.40
2022-12-13T08:16:30.552Z,19.70
2022-12-13T08:19:03.215Z,17.30
2022-12-13T08:21:58.231Z,17.07
2022-12-13T08:24:28.333Z,14.73
2022-12-13T08:27:01.416Z,13.93
2022-12-13T08:29:33.377Z,15.60
2022-12-13T08:32:11.886Z,19.83
2022-12-13T08:34:42.146Z,18.97
2022-12-13T08:37:09.803Z,16.47
2022-12-13T08:39:38.805Z,14.30
2022-12-13T08:42:16.881Z,15.40
2022-12-13T08:44:47.102Z,22.93
2022-12-13T08:47:22.953Z,17.80
2022-12-13T08:50:03.086Z,28.83
2022-12-13T08:52:39.837Z,15.90
2022-12-13T08:55:10.599Z,13.80
2022-12-13T08:57:40.808Z,13.73
2022-12-13T09:00:11.680Z,13.60
2022-12-13T09:02:39.458Z,15.77
2022-12-13T09:05:09.312Z,16.13
2022-12-13T09:07:39.753Z,13.67
2022-12-13T09:10:26.671Z,14.87
2022-12-13T09:13:01.698Z,14.33
2022-12-13T09:15:34.367Z,13.40
2022-12-13T09:18:04.914Z,19.20
2022-12-13T09:20:40.506Z,13.97
2022-12-13T09:23:13.496Z,12.27
2022-12-13T09:25:44.868Z,12.57
2022-12-13T09:28:20.407Z,14.80
2022-12-13T09:30:48.245Z,15.73
2022-12-13T09:33:17.652Z,13.50
2022-12-13T09:35:57.060Z,13.17
2022-12-13T09:38:24.503Z,21.40
2022-12-13T09:41:02.014Z,17.17
2022-12-13T09:43:42.860Z,12.33
2022-12-13T09:46:34.666Z,11.57
2022-12-13T09:49:52.971Z,13.57
2022-12-13T09:52:25.000Z,15.97
2022-12-13T09:54:55.321Z,11.00
2022-12-13T09:57:32.079Z,10.37
2022-12-13T10:00:05.812Z,10.30
2022-12-13T10:02:48.514Z,12.17
2022-12-13T10:05:46.307Z,11.00
2022-12-13T10:08:17.811Z,11.60
2022-12-13T10:10:45.593Z,9.73
2022-12-13T10:13:27.751Z,11.77
2022-12-13T10:16:02.465Z,9.70
2022-12-13T10:18:36.045Z,12.27
2022-12-13T10:21:09.231Z,11.83
2022-12-13T10:23:59.935Z,10.70
2022-12-13T10:26:25.308Z,9.17
2022-12-13T10:29:03.965Z,10.63
2022-12-13T10:31:41.100Z,11.30
2022-12-13T10:34:21.610Z,8.97
2022-12-13T10:36:49.519Z,8.87
2022-12-13T10:39:40.038Z,10.60
2022-12-13T10:42:22.795Z,7.83
2022-12-13T10:45:23.523Z,9.40
2022-12-13T10:47:52.984Z,9.60
2022-12-13T10:50:29.249Z,11.00
2022-12-13T10:52:59.026Z,12.27
2022-12-13T10:55:34.212Z,14.03
2022-12-13T10:58:12.558Z,11.90
2022-12-13T11:00:43.063Z,13.60
2022-12-13T11:03:29.613Z,10.27
2022-12-13T11:06:15.283Z,9.07
2022-12-13T11:08:45.527Z,10.27
2022-12-13T11:11:17.901Z,10.83
2022-12-13T11:13:54.264Z,8.97
2022-12-13T11:16:26.973Z,9.27
2022-12-13T11:18:56.921Z,9.93
2022-12-13T11:21:37.006Z,17.73
2022-12-13T11:24:07.993Z,14.97
2022-12-13T11:26:39.528Z,8.87
2022-12-13T11:29:26.282Z,10.90
2022-12-13T11:32:11.158Z,11.43
2022-12-13T11:35:12.878Z,19.60
2022-12-13T11:38:03.657Z,8.77
2022-12-13T11:40:49.890Z,8.00
2022-12-13T11:43:36.198Z,12.27
2022-12-13T11:46:22.713Z,8.17
2022-12-13T11:48:59.836Z,9.07
2022-12-13T11:51:34.560Z,7.97
2022-12-13T11:54:10.903Z,9.23
2022-12-13T11:56:43.157Z,8.57
2022-12-13T11:59:40.037Z,12.50
2022-12-13T12:02:21.760Z,12.67
2022-12-13T12:04:59.682Z,13.67
2022-12-13T12:08:21.179Z,9.87
2022-12-13T12:10:50.120Z,7.27
2022-12-13T12:13:50.863Z,8.17
2022-12-13T12:16:39.545Z,10.00
2022-12-13T12:19:15.178Z,7.77
2022-12-13T12:22:13.675Z,7.93
2022-12-13T12:24:57.816Z,8.17
2022-12-13T12:27:47.248Z,13.03
2022-12-13T12:30:27.648Z,22.33
2022-12-13T12:33:09.759Z,21.27
2022-12-13T12:35:46.822Z,22.90
2022-12-13T12:38:56.558Z,25.47
2022-12-13T12:42:00.132Z,10.20
2022-12-13T12:44:43.034Z,7.77
2022-12-13T12:47:38.163Z,7.40
2022-12-13T12:50:19.477Z,10.27
2022-12-13T12:53:14.395Z,14.50
2022-12-13T12:55:49.310Z,12.47
2022-12-13T12:58:26.101Z,16.23
2022-12-13T13:01:43.956Z,9.83
2022-12-13T13:04:22.668Z,12.90
2022-12-13T13:07:04.633Z,18.80
2022-12-13T13:09:55.129Z,8.93
2022-12-13T13:12:29.713Z,9.20
2022-12-13T13:14:58.450Z,19.27
2022-12-13T13:17:26.399Z,18.50
2022-12-13T13:20:12.399Z,13.83
2022-12-13T13:22:44.263Z,14.07
2022-12-13T13:25:31.295Z,7.80
2022-12-13T13:28:06.551Z,6.53
2022-12-13T13:30:35.804Z,12.03
2022-12-13T13:33:04.172Z,11.23
2022-12-13T13:35:38.222Z,11.20
2022-12-13T13:38:48.968Z,9.50
2022-12-13T13:41:39.713Z,10.50
2022-12-13T13:44:44.929Z,8.70
2022-12-13T13:47:22.809Z,8.67
2022-12-13T13:50:13.301Z,10.97
2022-12-13T13:53:20.208Z,11.00
2022-12-13T13:56:14.764Z,12.03
2022-12-13T13:58:45.609Z,10.73
2022-12-13T14:01:51.304Z,23.97
2022-12-13T14:04:38.081Z,10.53
2022-12-13T14:07:27.177Z,9.40
2022-12-13T14:10:04.720Z,8.93
2022-12-13T14:13:07.027Z,9.43
2022-12-13T14:15:52.777Z,14.37
2022-12-13T14:18:48.519Z,12.53
2022-12-13T14:21:34.719Z,16.87
2022-12-13T14:24:17.611Z,13.03
2022-12-13T14:27:21.480Z,8.97
2022-12-13T14:29:58.420Z,9.70
2022-12-13T14:32:37.463Z,8.63
2022-12-13T14:35:25.930Z,9.17
2022-12-13T14:38:05.867Z,9.97
2022-12-13T14:40:37.712Z,11.57
2022-12-13T14:43:05.396Z,12.60
2022-12-13T14:45:38.254Z,11.60
2022-12-13T14:48:12.842Z,11.67
2022-12-13T14:50:44.100Z,12.37
2022-12-13T14:53:41.424Z,17.70
2022-12-13T14:56:28.543Z,21.07
2022-12-13T14:58:59.485Z,19.83
2022-12-13T15:01:38.575Z,16.53
2022-12-13T15:04:21.353Z,16.27
2022-12-13T15:06:56.678Z,14.30
2022-12-13T15:09:28.988Z,15.17
2022-12-13T15:12:14.966Z,13.97
2022-12-13T15:14:50.837Z,13.70
2022-12-13T15:17:40.213Z,16.47
2022-12-13T15:20:23.578Z,15.40
2022-12-13T15:23:06.283Z,16.57
2022-12-13T15:25:39.064Z,15.53
2022-12-13T15:28:08.368Z,16.27
2022-12-13T15:30:36.671Z,15.93
2022-12-13T15:33:17.388Z,15.40
2022-12-13T15:35:48.143Z,15.57
2022-12-13T15:38:28.811Z,14.33
2022-12-13T15:40:57.374Z,15.63
2022-12-13T15:43:37.751Z,13.53
2022-12-13T15:46:08.285Z,15.27
2022-12-13T15:48:39.788Z,16.57
2022-12-13T15:51:13.243Z,20.50
2022-12-13T15:54:11.984Z,46.30
2022-12-13T15:56:58.258Z,52.57
2022-12-13T15:59:28.987Z,44.63
2022-12-13T16:01:58.715Z,24.57
2022-12-13T16:04:29.782Z,21.70
2022-12-13T16:06:57.916Z,18.77
2022-12-13T16:09:38.422Z,21.50
2022-12-13T16:12:07.653Z,19.47
2022-12-13T16:14:49.238Z,16.93
2022-12-13T16:17:25.870Z,25.17
2022-12-13T16:19:55.542Z,16.37
2022-12-13T16:22:24.279Z,16.33
2022-12-13T16:24:52.975Z,16.90
2022-12-13T16:27:20.341Z,13.30
2022-12-13T16:29:48.337Z,14.70
2022-12-13T16:32:15.935Z,15.90
2022-12-13T16:34:43.807Z,16.83
2022-12-13T16:37:26.373Z,17.90
2022-12-13T16:39:56.345Z,17.37
2022-12-13T16:42:26.403Z,17.90
2022-12-13T16:45:24.865Z,16.27
2022-12-13T16:47:49.629Z,15.23
2022-12-13T16:50:20.154Z,20.37
2022-12-13T16:52:48.757Z,25.43
2022-12-13T16:55:16.780Z,23.30
2022-12-13T16:58:05.244Z,35.70
2022-12-13T17:00:33.980Z,94.13
2022-12-13T17:03:02.428Z,28.47
2022-12-13T17:05:31.431Z,33.73
2022-12-13T17:07:59.158Z,36.57
2022-12-13T17:10:27.676Z,39.53
2022-12-13T17:12:55.435Z,30.07
2022-12-13T17:15:23.265Z,25.70
2022-12-13T17:17:51.035Z,20.83
2022-12-13T17:20:19.299Z,18.77
2022-12-13T17:22:47.403Z,20.80
2022-12-13T17:25:16.892Z,18.93
2022-12-13T17:27:46.031Z,19.40
2022-12-13T17:30:19.536Z,19.10
2022-12-13T17:32:47.603Z,17.20
2022-12-13T17:35:18.598Z,14.90
2022-12-13T17:37:48.005Z,14.17
2022-12-13T17:40:17.181Z,13.20
2022-12-13T17:42:46.053Z,12.87
2022-12-13T17:45:13.828Z,13.30
2022-12-13T17:47:41.287Z,11.83
2022-12-13T17:50:09.715Z,12.57
2022-12-13T17:52:39.331Z,24.43
2022-12-13T17:55:11.211Z,19.00
2022-12-13T17:57:42.567Z,15.70
2022-12-13T18:00:11.731Z,14.10
2022-12-13T18:02:41.951Z,15.10
2022-12-13T18:05:26.377Z,14.20
2022-12-13T18:07:53.979Z,14.27
2022-12-13T18:10:26.374Z,12.80
2022-12-13T18:12:58.220Z,13.20
2022-12-13T18:15:26.389Z,12.60
2022-12-13T18:18:13.673Z,12.20
2022-12-13T18:20:42.032Z,12.70
2022-12-13T18:23:09.836Z,13.80
2022-12-13T18:25:37.883Z,13.40
2022-12-13T18:28:05.945Z,13.70
2022-12-13T18:30:34.009Z,14.00
2022-12-13T18:33:01.663Z,13.60
2022-12-13T18:35:29.775Z,15.00
2022-12-13T18:37:57.481Z,14.77
2022-12-13T18:40:25.631Z,15.20
2022-12-13T18:42:53.432Z,17.47
2022-12-13T18:45:21.517Z,20.67
2022-12-13T18:47:49.241Z,26.63
2022-12-13T18:50:17.168Z,44.57
2022-12-13T18:52:44.981Z,44.77
2022-12-13T18:55:13.578Z,38.10
2022-12-13T18:57:41.416Z,30.47
2022-12-13T19:00:12.149Z,24.00
2022-12-13T19:02:39.668Z,20.40
2022-12-13T19:05:08.105Z,17.27
2022-12-13T19:07:36.789Z,14.87
2022-12-13T19:10:05.085Z,14.93
2022-12-13T19:12:32.584Z,15.20
2022-12-13T19:15:01.053Z,13.13
2022-12-13T19:17:28.971Z,13.23
2022-12-13T19:19:56.895Z,13.13
2022-12-13T19:22:24.790Z,12.37
2022-12-13T19:24:52.866Z,12.27
2022-12-13T19:27:20.523Z,12.57
2022-12-13T19:29:48.787Z,11.90
2022-12-13T19:32:16.510Z,12.23
2022-12-13T19:34:44.784Z,16.70
2022-12-13T19:37:12.219Z,20.03
2022-12-13T19:39:41.542Z,24.77
2022-12-13T19:42:09.073Z,23.47
2022-12-13T19:44:36.786Z,23.20
2022-12-13T19:47:04.194Z,19.33
2022-12-13T19:49:31.893Z,19.30
2022-12-13T19:52:00.432Z,16.43
2022-12-13T19:54:28.578Z,14.00
2022-12-13T19:56:59.227Z,15.07
2022-12-13T19:59:30.607Z,15.13
2022-12-13T20:02:00.905Z,15.83
2022-12-13T20:04:29.375Z,16.33
2022-12-13T20:06:57.465Z,15.97
2022-12-13T20:09:25.626Z,16.27
2022-12-13T20:11:54.241Z,14.70
2022-12-13T20:14:22.232Z,15.87
2022-12-13T20:16:49.883Z,18.27
2022-12-13T20:19:18.242Z,20.40
2022-12-13T20:21:46.638Z,18.17
2022-12-13T20:24:14.518Z,17.33
2022-12-13T20:26:42.047Z,17.73
2022-12-13T20:29:11.126Z,17.57
2022-12-13T20:31:40.209Z,17.57
2022-12-13T20:34:15.060Z,18.43
2022-12-13T20:36:43.306Z,19.87
2022-12-13T20:39:13.516Z,18.63
2022-12-13T20:41:41.831Z,18.30
2022-12-13T20:44:12.527Z,18.00
2022-12-13T20:46:40.624Z,18.77
2022-12-13T20:49:10.261Z,19.40
2022-12-13T20:51:40.422Z,19.20
2022-12-13T20:54:09.284Z,19.93
2022-12-13T20:56:38.676Z,19.80
2022-12-13T20:59:09.423Z,20.73
2022-12-13T21:01:38.797Z,21.00
2022-12-13T21:04:09.204Z,22.00
2022-12-13T21:06:39.873Z,21.47
2022-12-13T21:09:09.377Z,22.07
2022-12-13T21:11:43.148Z,23.27
2022-12-13T21:14:18.796Z,22.03
2022-12-13T21:16:52.762Z,24.67
2022-12-13T21:19:27.355Z,24.70
2022-12-13T21:21:56.307Z,23.30
2022-12-13T21:24:25.856Z,24.03
2022-12-13T21:26:56.684Z,22.70
2022-12-13T21:29:27.508Z,24.13
2022-12-13T21:31:55.439Z,25.00
2022-12-13T21:34:24.495Z,24.17
2022-12-13T21:36:53.038Z,24.40
2022-12-13T21:39:25.546Z,23.23
2022-12-13T21:41:54.817Z,24.03
2022-12-13T21:44:24.368Z,25.03
2022-12-13T21:47:11.830Z,22.87
2022-12-13T21:49:41.354Z,22.57
2022-12-13T21:52:09.530Z,24.40
2022-12-13T21:54:38.374Z,22.57
2022-12-13T21:57:25.845Z,24.47
2022-12-13T21:59:53.733Z,24.07
2022-12-13T22:02:22.496Z,24.03
2022-12-13T22:04:55.911Z,24.00
2022-12-13T22:07:27.554Z,24.83
2022-12-13T22:09:56.380Z,25.13
2022-12-13T22:12:32.709Z,26.40
2022-12-13T22:15:01.915Z,27.03
2022-12-13T22:17:35.136Z,28.07
2022-12-13T22:20:06.396Z,28.30
2022-12-13T22:22:33.821Z,28.23
2022-12-13T22:25:01.577Z,27.43
2022-12-13T22:27:28.978Z,27.87
2022-12-13T22:29:57.778Z,28.03
2022-12-13T22:32:27.618Z,29.37
2022-12-13T22:34:56.244Z,29.40
2022-12-13T22:37:25.076Z,29.27
2022-12-13T22:39:53.093Z,28.53
2022-12-13T22:42:21.211Z,29.67
2022-12-13T22:44:49.960Z,30.50
2022-12-13T22:47:18.895Z,30.53
2022-12-13T22:49:48.693Z,30.20
2022-12-13T22:52:17.811Z,31.83
2022-12-13T22:54:45.444Z,30.53
2022-12-13T22:57:12.903Z,30.87
2022-12-13T22:59:40.593Z,32.13
2022-12-13T23:02:09.949Z,31.93
2022-12-13T23:04:38.886Z,31.17
2022-12-13T23:07:06.415Z,31.63
2022-12-13T23:09:34.006Z,30.93
2022-12-13T23:12:20.188Z,30.20
2022-12-13T23:14:48.056Z,30.27
2022-12-13T23:17:15.349Z,30.07
2022-12-13T23:19:49.473Z,30.00
2022-12-13T23:22:20.840Z,30.43
2022-12-13T23:24:49.449Z,30.50
2022-12-13T23:27:17.076Z,31.17
2022-12-13T23:29:44.977Z,32.37
2022-12-13T23:32:12.739Z,29.27
2022-12-13T23:34:40.360Z,30.97
2022-12-13T23:37:07.837Z,30.87
2022-12-13T23:39:37.759Z,30.47
2022-12-13T23:42:05.151Z,33.30
2022-12-13T23:44:32.776Z,32.83
2022-12-13T23:47:00.262Z,33.10
2022-12-13T23:49:27.912Z,32.63
2022-12-13T23:51:55.373Z,31.07
2022-12-13T23:54:22.999Z,33.50
2022-12-13T23:56:50.373Z,31.90
2022-12-13T23:59:19.044Z,29.77
